Time;durP1;ratioP1;P1;durP2;ratioP2;P2;SDS_P1;SDS_P2;PMS_P1;PMS_P2;Temp;Humidity;BMP_temperature;BMP_pressure;BME280_temperature;BME280_humidity;BME280_pressure;Samples;Min_cycle;Max_cycle;Signal;HPM_P1;HPM_P2
2022/02/22 00:07:28;;;;;;;5.45;1.17;;;;;;;;;;5266658;23;20112;-90
2022/02/22 00:09:55;;;;;;;9.43;1.20;;;;;;;;;;5054025;28;20485;-92
2022/02/22 00:14:56;;;;;;;2.80;1.10;;;;;;;;;;5434553;22;20574;-89
2022/02/22 00:17:21;;;;;;;4.57;1.40;;;;;;;;;;5056745;28;20026;-91
2022/02/22 00:22:23;;;;;;;8.23;1.38;;;;;;;;;;5802335;23;20037;-88
2022/02/22 00:27:24;;;;;;;4.78;1.33;;;;;;;;;;5537494;22;20107;-91
2022/02/22 00:32:25;;;;;;;5.60;2.00;;;;;;;;;;5942738;23;20052;-88
2022/02/22 00:40:04;;;;;;;7.03;1.40;;;;;;;;;;5321170;22;20049;-90
2022/02/22 00:45:05;;;;;;;6.75;2.00;;;;;;;;;;5348484;23;20045;-90
2022/02/22 00:47:31;;;;;;;4.20;1.35;;;;;;;;;;5053076;28;20025;-90
2022/02/22 00:49:58;;;;;;;2.97;1.40;;;;;;;;;;5335646;22;20033;-90
2022/02/22 01:00:09;;;;;;;4.50;1.42;;;;;;;;;;5113351;23;20085;-93
2022/02/22 01:02:35;;;;;;;6.53;0.90;;;;;;;;;;5031173;28;20018;-90
2022/02/22 01:05:03;;;;;;;4.63;1.10;;;;;;;;;;5030553;28;20026;-90
2022/02/22 01:15:14;;;;;;;3.42;0.93;;;;;;;;;;5360942;22;20057;-91
2022/02/22 01:17:39;;;;;;;1.92;0.90;;;;;;;;;;5050730;28;20029;-91
2022/02/22 01:25:14;;;;;;;4.75;0.98;;;;;;;;;;5359385;23;20045;-92
2022/02/22 01:27:40;;;;;;;3.70;0.82;;;;;;;;;;5040813;28;20028;-92
2022/02/22 01:32:40;;;;;;;5.88;1.30;;;;;;;;;;5157851;22;20064;-91
2022/02/22 01:35:06;;;;;;;3.67;1.10;;;;;;;;;;5040323;28;20022;-92
2022/02/22 01:37:32;;;;;;;7.20;1.30;;;;;;;;;;5049322;28;20029;-89
2022/02/22 01:39:57;;;;;;;5.60;1.38;;;;;;;;;;5051218;28;20085;-91
2022/02/22 01:45:00;;;;;;;3.67;1.00;;;;;;;;;;5622183;22;20041;-92
2022/02/22 01:47:26;;;;;;;6.10;1.10;;;;;;;;;;5048940;28;20507;-92
2022/02/22 01:49:51;;;;;;;6.05;1.52;;;;;;;;;;5042412;28;20255;-92
2022/02/22 01:52:19;;;;;;;4.55;1.17;;;;;;;;;;5050385;28;20020;-90
2022/02/22 01:54:45;;;;;;;7.93;1.38;;;;;;;;;;5052770;28;20025;-92
2022/02/22 01:57:13;;;;;;;8.63;2.22;;;;;;;;;;5040992;28;20087;-94
2022/02/22 01:59:40;;;;;;;5.72;1.17;;;;;;;;;;5023477;28;20020;-93
2022/02/22 02:02:06;;;;;;;5.72;1.40;;;;;;;;;;5039674;28;20022;-93
2022/02/22 02:04:34;;;;;;;7.20;1.20;;;;;;;;;;5038915;28;20070;-93
2022/02/22 02:07:00;;;;;;;5.85;1.30;;;;;;;;;;5038895;28;20013;-93
2022/02/22 02:09:26;;;;;;;5.38;1.00;;;;;;;;;;5038582;28;20076;-93
2022/02/22 02:11:56;;;;;;;7.13;1.13;;;;;;;;;;5038941;28;20017;-93
2022/02/22 02:14:21;;;;;;;2.50;0.75;;;;;;;;;;5040824;28;20026;-92
2022/02/22 02:16:47;;;;;;;12.82;1.05;;;;;;;;;;5038773;28;20017;-93
2022/02/22 02:19:13;;;;;;;5.97;1.40;;;;;;;;;;5038283;28;20436;-93
2022/02/22 02:21:39;;;;;;;3.88;1.00;;;;;;;;;;5037137;28;20108;-94
2022/02/22 02:24:15;;;;;;;4.85;0.90;;;;;;;;;;5035918;28;20056;-91
2022/02/22 02:26:41;;;;;;;8.68;0.95;;;;;;;;;;5038442;28;20018;-92
2022/02/22 02:29:11;;;;;;;4.38;0.70;;;;;;;;;;5040223;28;20112;-93
2022/02/22 02:31:40;;;;;;;3.80;0.70;;;;;;;;;;5038878;28;20527;-93
2022/02/22 02:34:07;;;;;;;6.20;0.85;;;;;;;;;;5037750;28;20075;-92
2022/02/22 02:36:33;;;;;;;7.70;1.02;;;;;;;;;;5039731;28;20112;-92
2022/02/22 02:38:58;;;;;;;1.85;0.57;;;;;;;;;;5039749;28;20024;-90
2022/02/22 02:41:24;;;;;;;5.30;0.80;;;;;;;;;;5042070;28;20022;-90
2022/02/22 02:43:52;;;;;;;7.38;1.15;;;;;;;;;;5039510;28;20014;-93
2022/02/22 02:46:19;;;;;;;5.88;1.00;;;;;;;;;;5039070;28;20025;-92
2022/02/22 02:48:45;;;;;;;5.43;1.00;;;;;;;;;;5037160;28;20285;-91
2022/02/22 02:51:13;;;;;;;4.53;0.60;;;;;;;;;;5037571;28;20539;-92
2022/02/22 02:53:38;;;;;;;2.17;0.60;;;;;;;;;;5039539;28;20021;-92
2022/02/22 02:56:04;;;;;;;4.28;0.68;;;;;;;;;;5040990;28;20021;-92
2022/02/22 02:58:29;;;;;;;3.08;0.85;;;;;;;;;;5041503;28;20029;-92
2022/02/22 03:00:55;;;;;;;4.05;0.80;;;;;;;;;;5042290;28;20465;-92
2022/02/22 03:03:20;;;;;;;3.85;0.95;;;;;;;;;;5043793;28;20018;-91
2022/02/22 03:05:45;;;;;;;8.88;1.00;;;;;;;;;;5046013;28;20101;-90
2022/02/22 03:08:11;;;;;;;6.88;1.45;;;;;;;;;;5045875;28;20404;-90
2022/02/22 03:10:37;;;;;;;8.32;1.00;;;;;;;;;;5045171;28;20022;-89
2022/02/22 03:13:02;;;;;;;10.77;1.45;;;;;;;;;;5050358;28;20021;-92
2022/02/22 03:15:27;;;;;;;6.10;1.02;;;;;;;;;;5041439;28;20021;-92
2022/02/22 03:17:53;;;;;;;7.55;1.25;;;;;;;;;;5044831;28;20033;-92
2022/02/22 03:20:18;;;;;;;6.93;1.20;;;;;;;;;;5046178;28;20041;-90
2022/02/22 03:22:45;;;;;;;8.40;1.88;;;;;;;;;;5045553;28;20021;-89
2022/02/22 03:25:11;;;;;;;10.05;1.80;;;;;;;;;;5048140;28;20030;-91
2022/02/22 03:27:39;;;;;;;11.38;1.88;;;;;;;;;;5047450;28;20120;-92
2022/02/22 03:30:06;;;;;;;8.15;1.88;;;;;;;;;;5047527;28;20033;-91
2022/02/22 03:32:31;;;;;;;13.43;1.70;;;;;;;;;;5049268;28;20025;-90
2022/02/22 03:35:00;;;;;;;19.70;2.13;;;;;;;;;;5052479;28;20113;-90
2022/02/22 03:37:25;;;;;;;19.73;2.08;;;;;;;;;;5052472;28;20084;-90
2022/02/22 03:39:50;;;;;;;21.60;2.75;;;;;;;;;;5048950;28;20167;-92
2022/02/22 03:42:16;;;;;;;18.00;2.28;;;;;;;;;;5051998;28;20018;-90
2022/02/22 03:44:42;;;;;;;23.75;2.90;;;;;;;;;;5050307;28;20049;-91
2022/02/22 03:47:07;;;;;;;20.90;3.80;;;;;;;;;;5045054;28;20047;-90
2022/02/22 03:49:32;;;;;;;12.05;2.13;;;;;;;;;;5041596;28;20021;-91
2022/02/22 03:51:58;;;;;;;16.42;2.60;;;;;;;;;;5056196;28;20010;-88
2022/02/22 03:54:23;;;;;;;20.23;2.13;;;;;;;;;;5053220;28;20041;-91
2022/02/22 03:56:49;;;;;;;13.27;2.17;;;;;;;;;;5048033;28;20109;-90
2022/02/22 03:59:14;;;;;;;17.00;2.47;;;;;;;;;;5046049;28;20026;-90
2022/02/22 04:01:40;;;;;;;18.23;2.70;;;;;;;;;;5046078;28;20401;-89
2022/02/22 04:04:05;;;;;;;13.18;2.30;;;;;;;;;;5047854;28;20013;-89
2022/02/22 04:06:31;;;;;;;16.88;2.67;;;;;;;;;;5054019;28;20009;-89
2022/02/22 04:08:56;;;;;;;15.15;2.10;;;;;;;;;;5047416;28;20056;-91
2022/02/22 04:11:24;;;;;;;15.15;2.28;;;;;;;;;;5044936;28;20052;-92
2022/02/22 04:13:49;;;;;;;15.25;2.22;;;;;;;;;;5049230;28;20018;-91
2022/02/22 04:16:15;;;;;;;20.27;2.15;;;;;;;;;;5047732;28;20040;-89
2022/02/22 04:18:40;;;;;;;15.70;2.20;;;;;;;;;;5052793;28;20033;-91
2022/02/22 04:21:06;;;;;;;12.00;2.03;;;;;;;;;;5047002;28;20104;-90
2022/02/22 04:23:31;;;;;;;14.95;2.58;;;;;;;;;;5044973;28;20021;-91
2022/02/22 04:25:57;;;;;;;14.93;2.25;;;;;;;;;;5051571;28;20021;-90
2022/02/22 04:28:22;;;;;;;15.25;1.70;;;;;;;;;;5053294;28;20017;-91
2022/02/22 04:30:47;;;;;;;17.02;2.22;;;;;;;;;;5051425;28;20022;-92
2022/02/22 04:33:17;;;;;;;20.92;2.10;;;;;;;;;;5053094;28;20017;-91
2022/02/22 04:35:42;;;;;;;10.85;2.30;;;;;;;;;;5628479;23;20088;-91
2022/02/22 04:38:08;;;;;;;19.55;2.60;;;;;;;;;;5054813;28;20109;-91
2022/02/22 04:40:36;;;;;;;13.93;2.03;;;;;;;;;;5053202;28;20033;-91
2022/02/22 04:43:02;;;;;;;12.90;2.50;;;;;;;;;;5050110;28;20044;-92
2022/02/22 04:45:27;;;;;;;9.90;1.73;;;;;;;;;;5048330;28;20025;-91
2022/02/22 04:47:55;;;;;;;18.20;3.20;;;;;;;;;;5054151;28;20041;-92
2022/02/22 04:50:21;;;;;;;14.88;2.28;;;;;;;;;;5049957;28;20076;-93
2022/02/22 04:52:46;;;;;;;18.90;2.30;;;;;;;;;;5032192;28;20026;-91
2022/02/22 04:55:14;;;;;;;8.70;1.88;;;;;;;;;;5049621;28;20032;-92
2022/02/22 04:57:40;;;;;;;13.85;1.65;;;;;;;;;;5054577;28;20017;-91
2022/02/22 05:00:07;;;;;;;7.68;1.75;;;;;;;;;;5051903;28;20017;-91
2022/02/22 05:02:32;;;;;;;13.55;2.40;;;;;;;;;;5053715;28;20113;-90
2022/02/22 05:05:01;;;;;;;8.32;2.45;;;;;;;;;;5050990;28;20017;-91
2022/02/22 05:07:26;;;;;;;7.68;1.38;;;;;;;;;;5051955;28;20018;-91
2022/02/22 05:09:52;;;;;;;9.02;1.40;;;;;;;;;;5049903;28;20044;-90
2022/02/22 05:12:19;;;;;;;14.13;2.10;;;;;;;;;;5055638;28;20014;-91
2022/02/22 05:14:45;;;;;;;8.70;2.03;;;;;;;;;;5050079;28;20035;-91
2022/02/22 05:17:10;;;;;;;12.98;1.60;;;;;;;;;;5049488;28;20045;-91
2022/02/22 05:19:35;;;;;;;14.68;1.60;;;;;;;;;;5051033;22;20103;-77
2022/02/22 05:22:01;;;;;;;10.05;1.70;;;;;;;;;;5031392;28;20024;-76
2022/02/22 05:24:26;;;;;;;13.55;1.67;;;;;;;;;;5033001;28;20108;-75
2022/02/22 05:26:51;;;;;;;19.50;2.42;;;;;;;;;;5032930;28;20021;-76
2022/02/22 05:29:16;;;;;;;14.77;2.03;;;;;;;;;;5033477;28;20089;-77
2022/02/22 05:31:41;;;;;;;14.65;1.95;;;;;;;;;;5033953;28;20541;-78
2022/02/22 05:34:07;;;;;;;13.48;1.70;;;;;;;;;;5033588;28;20013;-76
2022/02/22 05:36:32;;;;;;;9.30;1.85;;;;;;;;;;5033230;28;20022;-76
2022/02/22 05:38:57;;;;;;;17.92;1.85;;;;;;;;;;5032262;28;20326;-75
2022/02/22 05:41:23;;;;;;;19.83;2.67;;;;;;;;;;5032560;28;20045;-75
2022/02/22 05:43:48;;;;;;;11.95;2.10;;;;;;;;;;5030892;28;20412;-75
2022/02/22 05:46:13;;;;;;;11.52;1.88;;;;;;;;;;5032034;28;20022;-76
2022/02/22 05:48:39;;;;;;;16.90;2.28;;;;;;;;;;5032113;28;20108;-77
2022/02/22 05:51:04;;;;;;;16.83;2.33;;;;;;;;;;5032524;28;20025;-76
2022/02/22 05:53:30;;;;;;;9.63;1.60;;;;;;;;;;5032098;28;20024;-75
2022/02/22 05:55:55;;;;;;;7.60;1.80;;;;;;;;;;5032356;28;20527;-76
2022/02/22 05:58:20;;;;;;;12.52;1.94;;;;;;;;;;5032113;28;20026;-76
2022/02/22 06:00:45;;;;;;;10.30;1.83;;;;;;;;;;5031250;28;20025;-76
2022/02/22 06:03:10;;;;;;;17.00;2.63;;;;;;;;;;5031865;28;20495;-76
2022/02/22 06:05:36;;;;;;;10.57;1.50;;;;;;;;;;5032127;28;20473;-77
2022/02/22 06:08:01;;;;;;;9.45;1.80;;;;;;;;;;5032378;28;20017;-75
2022/02/22 06:10:28;;;;;;;15.02;2.45;;;;;;;;;;5032002;28;20100;-77
2022/02/22 06:12:53;;;;;;;14.93;2.47;;;;;;;;;;5031686;28;20021;-77
2022/02/22 06:15:18;;;;;;;14.10;1.90;;;;;;;;;;5032091;28;20400;-76
2022/02/22 06:17:44;;;;;;;20.83;3.15;;;;;;;;;;5032139;28;20155;-76
2022/02/22 06:20:10;;;;;;;20.40;2.35;;;;;;;;;;5032019;28;20109;-77
2022/02/22 06:22:36;;;;;;;14.65;2.20;;;;;;;;;;5031485;28;20022;-76
2022/02/22 06:25:03;;;;;;;15.68;1.98;;;;;;;;;;5031912;28;20025;-75
2022/02/22 06:27:28;;;;;;;14.02;2.22;;;;;;;;;;5031807;28;20020;-75
2022/02/22 06:32:41;;;;;;;13.45;2.50;;;;;;;;;;5032531;28;20029;-76
2022/02/22 06:35:07;;;;;;;20.98;3.63;;;;;;;;;;5032520;28;20018;-76
2022/02/22 06:37:32;;;;;;;20.30;2.58;;;;;;;;;;5031811;28;20071;-76
2022/02/22 06:39:59;;;;;;;19.75;3.03;;;;;;;;;;5032857;28;20105;-75
2022/02/22 06:42:24;;;;;;;16.27;2.40;;;;;;;;;;5032162;28;20021;-77
2022/02/22 06:44:49;;;;;;;16.80;2.95;;;;;;;;;;5032332;28;20028;-75
2022/02/22 06:47:14;;;;;;;18.95;2.55;;;;;;;;;;5030562;28;20021;-77
2022/02/22 06:49:39;;;;;;;17.23;2.97;;;;;;;;;;5031936;28;20036;-76
2022/02/22 06:52:04;;;;;;;24.23;2.22;;;;;;;;;;5031653;28;20120;-77
2022/02/22 06:54:30;;;;;;;13.13;2.10;;;;;;;;;;5031738;28;20465;-75
2022/02/22 06:56:55;;;;;;;17.98;2.40;;;;;;;;;;5031964;28;20021;-77
2022/02/22 06:59:20;;;;;;;15.77;3.45;;;;;;;;;;5035074;28;20435;-76
2022/02/22 07:01:46;;;;;;;11.84;2.18;;;;;;;;;;5035384;28;20373;-76
2022/02/22 07:04:11;;;;;;;12.48;3.10;;;;;;;;;;5035408;28;20017;-76
2022/02/22 07:06:36;;;;;;;15.65;2.20;;;;;;;;;;5035357;28;20021;-76
2022/02/22 07:09:01;;;;;;;18.50;3.08;;;;;;;;;;5035345;28;20060;-77
2022/02/22 07:11:26;;;;;;;11.93;2.35;;;;;;;;;;5035261;28;20024;-76
2022/02/22 07:13:52;;;;;;;19.08;2.65;;;;;;;;;;5035051;28;20025;-76
2022/02/22 07:16:17;;;;;;;12.77;2.50;;;;;;;;;;5035472;28;20395;-76
2022/02/22 07:18:43;;;;;;;14.48;2.28;;;;;;;;;;5034970;28;20488;-76
2022/02/22 07:21:08;;;;;;;15.63;2.50;;;;;;;;;;5035252;28;20477;-77
2022/02/22 07:23:33;;;;;;;10.13;2.00;;;;;;;;;;5034895;28;20483;-76
2022/02/22 07:25:58;;;;;;;13.95;2.22;;;;;;;;;;5035360;28;20040;-75
2022/02/22 07:28:23;;;;;;;25.02;3.28;;;;;;;;;;5035083;28;20472;-76
2022/02/22 07:30:49;;;;;;;15.02;1.90;;;;;;;;;;5035031;28;20025;-76
2022/02/22 07:33:14;;;;;;;10.00;2.13;;;;;;;;;;5035232;28;20388;-75
2022/02/22 07:35:39;;;;;;;14.20;2.67;;;;;;;;;;5035422;28;20465;-76
2022/02/22 07:38:04;;;;;;;15.52;2.55;;;;;;;;;;5035235;28;20021;-76
2022/02/22 07:40:35;;;;;;;16.75;3.92;;;;;;;;;;5036224;28;20029;-78
2022/02/22 07:43:01;;;;;;;14.32;1.90;;;;;;;;;;5035191;28;20044;-75
2022/02/22 07:45:27;;;;;;;10.38;1.75;;;;;;;;;;5035335;28;20018;-76
2022/02/22 07:47:52;;;;;;;19.00;3.53;;;;;;;;;;5034495;28;20030;-76
2022/02/22 07:50:17;;;;;;;9.74;2.30;;;;;;;;;;5034804;28;20025;-75
2022/02/22 07:52:43;;;;;;;21.95;2.33;;;;;;;;;;5034632;28;20021;-77
2022/02/22 07:55:08;;;;;;;16.60;2.38;;;;;;;;;;5034596;28;20021;-76
2022/02/22 07:57:34;;;;;;;21.02;3.80;;;;;;;;;;5034514;28;20056;-75
2022/02/22 07:59:59;;;;;;;7.60;1.92;;;;;;;;;;5034296;28;20020;-75
2022/02/22 08:02:24;;;;;;;21.00;2.42;;;;;;;;;;5034210;28;20393;-76
2022/02/22 08:04:50;;;;;;;14.55;2.92;;;;;;;;;;5034438;28;20458;-76
2022/02/22 08:07:17;;;;;;;17.58;2.67;;;;;;;;;;5034405;28;20021;-76
2022/02/22 08:09:42;;;;;;;12.63;2.22;;;;;;;;;;5032367;28;20025;-75
2022/02/22 08:12:07;;;;;;;23.35;3.70;;;;;;;;;;5034259;28;20451;-76
2022/02/22 08:14:33;;;;;;;11.55;1.95;;;;;;;;;;5034517;28;20080;-76
2022/02/22 08:17:01;;;;;;;12.80;2.20;;;;;;;;;;5034592;28;20021;-77
2022/02/22 08:19:27;;;;;;;14.40;2.35;;;;;;;;;;5032453;28;20034;-76
2022/02/22 08:21:52;;;;;;;14.65;2.97;;;;;;;;;;5033594;28;20071;-76
2022/02/22 08:24:17;;;;;;;15.48;2.65;;;;;;;;;;5033832;28;20021;-76
2022/02/22 08:26:42;;;;;;;10.95;2.30;;;;;;;;;;5033936;28;20020;-76
2022/02/22 08:29:08;;;;;;;13.55;2.13;;;;;;;;;;5033648;28;20469;-76
2022/02/22 08:31:33;;;;;;;16.33;3.10;;;;;;;;;;5033732;28;20096;-76
2022/02/22 08:33:58;;;;;;;16.08;3.78;;;;;;;;;;5033584;28;20021;-76
2022/02/22 08:36:24;;;;;;;16.35;2.35;;;;;;;;;;5033997;28;20415;-76
2022/02/22 08:38:51;;;;;;;14.20;2.85;;;;;;;;;;5033742;28;20021;-76
2022/02/22 08:41:17;;;;;;;11.63;2.20;;;;;;;;;;5033874;28;20017;-76
2022/02/22 08:43:42;;;;;;;15.18;2.33;;;;;;;;;;5033750;28;20522;-76
2022/02/22 08:46:07;;;;;;;16.48;2.60;;;;;;;;;;5033557;28;20024;-78
2022/02/22 08:48:32;;;;;;;17.58;3.15;;;;;;;;;;5033517;28;20101;-77
2022/02/22 08:50:57;;;;;;;16.83;2.53;;;;;;;;;;5034135;28;20019;-76
2022/02/22 08:53:23;;;;;;;19.00;3.25;;;;;;;;;;5033020;28;20053;-77
2022/02/22 08:55:48;;;;;;;12.80;3.00;;;;;;;;;;5033482;28;20100;-76
2022/02/22 08:58:15;;;;;;;20.75;3.13;;;;;;;;;;5033286;28;20056;-76
2022/02/22 09:00:40;;;;;;;22.95;3.83;;;;;;;;;;5033161;28;20079;-77
2022/02/22 09:03:06;;;;;;;21.42;2.78;;;;;;;;;;5032609;28;20017;-77
2022/02/22 09:05:33;;;;;;;26.35;3.60;;;;;;;;;;5033164;28;20481;-76
2022/02/22 09:07:58;;;;;;;16.38;3.05;;;;;;;;;;5031722;28;21113;-76
2022/02/22 09:10:23;;;;;;;20.38;2.72;;;;;;;;;;5032927;28;20017;-76
2022/02/22 09:12:49;;;;;;;19.63;2.67;;;;;;;;;;5032752;28;20041;-77
2022/02/22 09:15:16;;;;;;;12.98;2.22;;;;;;;;;;5033096;28;20026;-76
2022/02/22 09:17:42;;;;;;;12.77;2.42;;;;;;;;;;5032837;28;20029;-77
2022/02/22 09:20:08;;;;;;;16.38;3.80;;;;;;;;;;5031785;28;20032;-77
2022/02/22 09:22:34;;;;;;;18.33;2.15;;;;;;;;;;5032459;28;20148;-76
2022/02/22 09:24:59;;;;;;;22.02;3.70;;;;;;;;;;5033785;28;20104;-75
2022/02/22 09:27:24;;;;;;;18.70;2.55;;;;;;;;;;5033351;28;20014;-76
2022/02/22 09:29:49;;;;;;;20.13;2.22;;;;;;;;;;5032721;28;20448;-75
2022/02/22 09:32:14;;;;;;;17.24;2.78;;;;;;;;;;5030924;28;20021;-77
2022/02/22 09:34:40;;;;;;;14.27;2.60;;;;;;;;;;5031561;28;20022;-76
2022/02/22 09:37:06;;;;;;;11.50;2.20;;;;;;;;;;5031445;28;20029;-75
2022/02/22 09:39:31;;;;;;;19.23;2.40;;;;;;;;;;5032480;28;20025;-77
2022/02/22 09:41:57;;;;;;;15.20;2.40;;;;;;;;;;5032100;28;20487;-77
2022/02/22 09:44:23;;;;;;;17.42;3.05;;;;;;;;;;5032773;28;20049;-76
2022/02/22 09:46:49;;;;;;;23.23;3.25;;;;;;;;;;5032855;28;20020;-77
2022/02/22 09:49:14;;;;;;;17.83;2.75;;;;;;;;;;5032363;28;20068;-77
2022/02/22 09:51:39;;;;;;;14.65;2.45;;;;;;;;;;5032370;28;20025;-76
2022/02/22 09:54:04;;;;;;;15.18;2.30;;;;;;;;;;5032633;28;20060;-75
2022/02/22 09:56:29;;;;;;;23.52;2.63;;;;;;;;;;5033282;28;20537;-76
2022/02/22 09:58:55;;;;;;;17.45;3.28;;;;;;;;;;5031024;28;20017;-77
2022/02/22 10:01:20;;;;;;;22.67;2.95;;;;;;;;;;5032482;28;20033;-76
2022/02/22 10:03:55;;;;;;;16.42;2.40;;;;;;;;;;5031777;28;20025;-76
2022/02/22 10:06:22;;;;;;;15.95;2.72;;;;;;;;;;5032339;28;20079;-75
2022/02/22 10:08:53;;;;;;;16.80;3.13;;;;;;;;;;5030892;28;20025;-76
2022/02/22 10:11:18;;;;;;;12.13;3.95;;;;;;;;;;5032325;28;20056;-76
2022/02/22 10:13:45;;;;;;;12.13;2.22;;;;;;;;;;5031776;28;20032;-77
2022/02/22 10:16:12;;;;;;;21.67;2.92;;;;;;;;;;5032021;28;20033;-77
2022/02/22 10:18:50;;;;;;;12.38;2.80;;;;;;;;;;5031743;28;20025;-77
2022/02/22 10:21:16;;;;;;;14.90;2.53;;;;;;;;;;5032066;28;20055;-76
2022/02/22 10:23:41;;;;;;;24.98;3.22;;;;;;;;;;5031633;28;20484;-76
2022/02/22 10:26:06;;;;;;;13.45;2.28;;;;;;;;;;5031017;28;20500;-77
2022/02/22 10:28:32;;;;;;;11.35;2.00;;;;;;;;;;5032149;28;20089;-77
2022/02/22 10:30:57;;;;;;;7.15;1.75;;;;;;;;;;5032245;28;20018;-77
2022/02/22 10:33:24;;;;;;;12.88;2.85;;;;;;;;;;5033415;28;20022;-76
2022/02/22 10:35:51;;;;;;;16.92;2.72;;;;;;;;;;5035085;28;20619;-77
2022/02/22 10:38:28;;;;;;;13.30;2.42;;;;;;;;;;5036364;28;20026;-76
2022/02/22 10:41:13;;;;;;;25.05;3.67;;;;;;;;;;5036347;28;20025;-77
2022/02/22 10:43:39;;;;;;;19.42;2.67;;;;;;;;;;5035883;28;20025;-76
2022/02/22 10:46:06;;;;;;;11.30;2.15;;;;;;;;;;5036537;28;20040;-76
2022/02/22 10:48:34;;;;;;;9.43;2.17;;;;;;;;;;5036225;28;20087;-76
2022/02/22 10:51:00;;;;;;;10.95;2.03;;;;;;;;;;5036260;28;20500;-77
2022/02/22 10:53:32;;;;;;;13.98;3.38;;;;;;;;;;5035049;28;20084;-77
2022/02/22 10:55:58;;;;;;;12.70;3.28;;;;;;;;;;5035322;28;20113;-76
2022/02/22 10:58:24;;;;;;;10.55;2.10;;;;;;;;;;5034853;28;20100;-77
2022/02/22 11:00:49;;;;;;;13.75;1.88;;;;;;;;;;5034739;28;20061;-77
2022/02/22 11:03:14;;;;;;;13.95;2.20;;;;;;;;;;5034591;28;20484;-77
2022/02/22 11:05:40;;;;;;;15.82;2.33;;;;;;;;;;5035687;28;20018;-77
2022/02/22 11:08:05;;;;;;;14.80;2.63;;;;;;;;;;5035279;28;20080;-77
2022/02/22 11:10:31;;;;;;;15.18;2.53;;;;;;;;;;5035360;28;20033;-77
2022/02/22 11:13:00;;;;;;;14.32;2.40;;;;;;;;;;5035050;28;20547;-77
2022/02/22 11:15:35;;;;;;;12.70;2.55;;;;;;;;;;5035232;28;20021;-77
2022/02/22 11:18:13;;;;;;;11.15;2.20;;;;;;;;;;5035314;28;20029;-76
2022/02/22 11:20:41;;;;;;;9.48;2.40;;;;;;;;;;5035302;28;20511;-77
2022/02/22 11:23:09;;;;;;;14.75;2.40;;;;;;;;;;5034856;28;20485;-76
2022/02/22 11:25:36;;;;;;;16.75;2.25;;;;;;;;;;5034953;28;20108;-77
2022/02/22 11:28:02;;;;;;;14.30;1.90;;;;;;;;;;5034968;28;20021;-77
2022/02/22 11:30:28;;;;;;;10.25;1.67;;;;;;;;;;5034477;28;20495;-78
2022/02/22 11:32:55;;;;;;;12.48;2.65;;;;;;;;;;5033916;28;20255;-77
2022/02/22 11:35:21;;;;;;;16.95;2.45;;;;;;;;;;5034419;28;20492;-78
2022/02/22 11:37:46;;;;;;;13.60;2.95;;;;;;;;;;5034246;28;20036;-76
2022/02/22 11:40:22;;;;;;;15.63;2.60;;;;;;;;;;5034182;28;20021;-77
2022/02/22 11:42:47;;;;;;;14.40;2.45;;;;;;;;;;5032744;28;20388;-77
2022/02/22 11:45:12;;;;;;;11.68;2.17;;;;;;;;;;5033332;28;20063;-77
2022/02/22 11:47:39;;;;;;;14.68;2.30;;;;;;;;;;5033117;28;20057;-77
2022/02/22 11:50:15;;;;;;;8.85;1.83;;;;;;;;;;5033341;28;20037;-76
2022/02/22 11:52:45;;;;;;;13.70;2.22;;;;;;;;;;5033694;28;20028;-77
2022/02/22 11:55:11;;;;;;;12.68;2.92;;;;;;;;;;5033187;28;20477;-78
2022/02/22 11:57:50;;;;;;;14.40;2.90;;;;;;;;;;5034302;28;20067;-75
2022/02/22 12:00:16;;;;;;;8.65;1.95;;;;;;;;;;5034764;28;20017;-77
2022/02/22 12:02:45;;;;;;;14.63;5.35;;;;;;;;;;5034163;28;20026;-77
2022/02/22 12:05:10;;;;;;;;;;;;;;;;;;5035093;28;20013;-77
2022/02/22 12:07:35;;;;;;;11.15;1.90;;;;;;;;;;5034749;28;19992;-77
2022/02/22 12:10:06;;;;;;;7.65;1.80;;;;;;;;;;5033792;28;20014;-77
2022/02/22 12:12:32;;;;;;;9.10;1.73;;;;;;;;;;5033959;28;20013;-77
2022/02/22 12:14:57;;;;;;;16.13;1.73;;;;;;;;;;5034149;28;20041;-77
2022/02/22 12:17:23;;;;;;;8.40;2.15;;;;;;;;;;5033763;28;20032;-77
2022/02/22 12:19:52;;;;;;;13.93;1.95;;;;;;;;;;5033521;28;20116;-77
2022/02/22 12:22:20;;;;;;;11.60;2.08;;;;;;;;;;5033219;28;20040;-77
2022/02/22 12:24:45;;;;;;;8.70;1.80;;;;;;;;;;5033594;28;20024;-78
2022/02/22 12:27:11;;;;;;;14.93;1.95;;;;;;;;;;5032259;28;20025;-77
2022/02/22 12:29:36;;;;;;;14.73;2.80;;;;;;;;;;5034251;28;20053;-78
2022/02/22 12:32:02;;;;;;;12.38;2.22;;;;;;;;;;5031933;28;20037;-76
2022/02/22 12:34:29;;;;;;;10.25;1.85;;;;;;;;;;5033440;28;20019;-78
2022/02/22 12:36:55;;;;;;;10.57;2.03;;;;;;;;;;5033176;28;20140;-76
2022/02/22 12:39:22;;;;;;;14.05;2.28;;;;;;;;;;5033334;28;20022;-78
2022/02/22 12:41:49;;;;;;;11.18;1.85;;;;;;;;;;5033009;28;20092;-77
2022/02/22 12:44:16;;;;;;;10.98;2.70;;;;;;;;;;5033551;28;20022;-77
2022/02/22 12:46:42;;;;;;;9.55;1.67;;;;;;;;;;5033667;28;20040;-78
2022/02/22 12:49:09;;;;;;;7.57;2.10;;;;;;;;;;5033394;28;20025;-76
2022/02/22 12:51:34;;;;;;;12.07;1.98;;;;;;;;;;5033300;28;20026;-77
2022/02/22 12:54:07;;;;;;;9.95;1.90;;;;;;;;;;5032834;28;20021;-77
2022/02/22 12:56:34;;;;;;;11.63;1.70;;;;;;;;;;5032698;28;20021;-78
2022/02/22 12:58:59;;;;;;;12.82;1.85;;;;;;;;;;5032839;28;20053;-78
2022/02/22 13:01:30;;;;;;;11.55;1.85;;;;;;;;;;5033096;28;20121;-78
2022/02/22 13:03:56;;;;;;;7.72;1.63;;;;;;;;;;5031318;28;20024;-78
2022/02/22 13:06:22;;;;;;;12.23;2.60;;;;;;;;;;5033483;28;20492;-77
2022/02/22 13:08:48;;;;;;;12.70;2.05;;;;;;;;;;5033558;28;20497;-79
2022/02/22 13:11:14;;;;;;;8.40;1.77;;;;;;;;;;5034061;28;20024;-77
2022/02/22 13:13:40;;;;;;;8.18;1.60;;;;;;;;;;5034243;28;20048;-78
2022/02/22 13:16:13;;;;;;;6.75;1.77;;;;;;;;;;5038021;28;20034;-79
2022/02/22 13:18:48;;;;;;;8.88;1.48;;;;;;;;;;5041926;28;20022;-78
2022/02/22 13:21:17;;;;;;;13.23;2.03;;;;;;;;;;5034568;28;20083;-78
2022/02/22 13:23:42;;;;;;;12.43;1.83;;;;;;;;;;5033571;28;20014;-77
2022/02/22 13:26:07;;;;;;;14.75;1.92;;;;;;;;;;5033792;28;20021;-78
2022/02/22 13:28:34;;;;;;;11.15;2.40;;;;;;;;;;5033020;28;20021;-76
2022/02/22 13:31:16;;;;;;;10.05;1.77;;;;;;;;;;5034158;28;20025;-77
2022/02/22 13:33:42;;;;;;;9.40;1.83;;;;;;;;;;5033760;28;20159;-77
2022/02/22 13:36:11;;;;;;;15.18;2.30;;;;;;;;;;5033778;28;20523;-78
2022/02/22 13:38:36;;;;;;;10.93;2.13;;;;;;;;;;5031995;28;20013;-77
2022/02/22 13:41:09;;;;;;;9.73;2.47;;;;;;;;;;5033726;28;20096;-77
2022/02/22 13:43:34;;;;;;;18.50;2.30;;;;;;;;;;5033859;28;20026;-79
2022/02/22 13:46:00;;;;;;;9.25;1.77;;;;;;;;;;5036162;28;20095;-77
2022/02/22 13:48:28;;;;;;;12.75;2.17;;;;;;;;;;5039955;28;20034;-77
2022/02/22 13:51:01;;;;;;;13.50;2.07;;;;;;;;;;5041078;28;20049;-77
2022/02/22 13:53:28;;;;;;;13.50;2.17;;;;;;;;;;5038459;28;20493;-77
2022/02/22 13:55:58;;;;;;;14.75;2.30;;;;;;;;;;5043338;28;20029;-79
2022/02/22 13:58:24;;;;;;;9.13;2.88;;;;;;;;;;5041040;28;20077;-77
2022/02/22 14:00:50;;;;;;;12.60;2.60;;;;;;;;;;5041365;28;20021;-78
2022/02/22 14:03:16;;;;;;;9.05;2.00;;;;;;;;;;5034472;28;20456;-79
2022/02/22 14:05:41;;;;;;;14.15;2.00;;;;;;;;;;5035810;28;20028;-76
2022/02/22 14:08:11;;;;;;;9.95;2.03;;;;;;;;;;5038313;28;20021;-77
2022/02/22 14:10:36;;;;;;;19.27;2.85;;;;;;;;;;5039668;28;20120;-79
2022/02/22 14:13:01;;;;;;;12.10;2.13;;;;;;;;;;5037053;28;20061;-77
2022/02/22 14:15:26;;;;;;;13.98;2.72;;;;;;;;;;5038962;28;20430;-76
2022/02/22 14:17:52;;;;;;;11.57;1.83;;;;;;;;;;5039898;28;20018;-79
2022/02/22 14:20:17;;;;;;;11.50;2.00;;;;;;;;;;5037603;28;20029;-78
2022/02/22 14:22:43;;;;;;;15.02;2.33;;;;;;;;;;5033549;28;20096;-76
2022/02/22 14:25:09;;;;;;;9.80;2.08;;;;;;;;;;5036797;28;20013;-75
2022/02/22 14:27:35;;;;;;;9.90;2.08;;;;;;;;;;5035121;28;20039;-78
2022/02/22 14:30:00;;;;;;;16.95;2.42;;;;;;;;;;5034281;28;20014;-78
2022/02/22 14:32:25;;;;;;;23.10;2.42;;;;;;;;;;5035599;28;20036;-78
2022/02/22 14:34:50;;;;;;;17.15;2.85;;;;;;;;;;5038651;28;20029;-77
2022/02/22 14:37:15;;;;;;;14.55;2.08;;;;;;;;;;5037574;28;20030;-77
2022/02/22 14:39:41;;;;;;;24.48;8.32;;;;;;;;;;5035038;28;20511;-77
2022/02/22 14:42:06;;;;;;;12.90;2.50;;;;;;;;;;5031526;28;20021;-78
2022/02/22 14:44:31;;;;;;;13.75;2.45;;;;;;;;;;5032123;28;20025;-77
2022/02/22 14:46:56;;;;;;;11.32;2.40;;;;;;;;;;5031968;28;20049;-78
2022/02/22 14:49:22;;;;;;;10.70;2.90;;;;;;;;;;5031845;28;20056;-77
2022/02/22 14:51:47;;;;;;;13.07;2.15;;;;;;;;;;5031086;28;20465;-76
2022/02/22 14:54:12;;;;;;;18.02;2.83;;;;;;;;;;5032791;28;20025;-78
2022/02/22 14:56:38;;;;;;;13.68;1.73;;;;;;;;;;5032976;28;20036;-78
2022/02/22 14:59:03;;;;;;;16.50;3.85;;;;;;;;;;5033118;28;20025;-77
2022/02/22 15:01:29;;;;;;;12.18;2.03;;;;;;;;;;5032456;28;20473;-78
2022/02/22 15:03:54;;;;;;;11.00;2.17;;;;;;;;;;5029974;28;20017;-77
2022/02/22 15:06:20;;;;;;;8.82;1.83;;;;;;;;;;5032208;28;20018;-76
2022/02/22 15:08:45;;;;;;;8.82;1.55;;;;;;;;;;5032478;28;20595;-78
2022/02/22 15:11:11;;;;;;;14.82;2.30;;;;;;;;;;5031783;28;20331;-78
2022/02/22 15:13:38;;;;;;;16.23;2.25;;;;;;;;;;5031578;28;20025;-78
2022/02/22 15:16:04;;;;;;;17.40;2.45;;;;;;;;;;5032326;28;20481;-78
2022/02/22 15:18:29;;;;;;;16.73;2.60;;;;;;;;;;5032196;28;20021;-78
2022/02/22 15:20:54;;;;;;;11.85;2.10;;;;;;;;;;5035479;28;20033;-78